Time;durP1;ratioP1;P1;durP2;ratioP2;P2;SDS_P1;SDS_P2;PMS_P1;PMS_P2;Temp;Humidity;BMP_temperature;BMP_pressure;BME280_temperature;BME280_humidity;BME280_pressure;Samples;Min_cycle;Max_cycle;Signal;HPM_P1;HPM_P2
2022/09/25 00:00:59;;;;;;;6.18;1.70;;;;;;;12.36;100.00;101586.16;4935659;29;20106;-87
2022/09/25 00:03:29;;;;;;;9.45;2.08;;;;;;;12.46;100.00;101607.75;4935729;29;20406;-87
2022/09/25 00:06:08;;;;;;;9.15;1.77;;;;;;;12.34;100.00;101590.59;4937251;29;20052;-88
2022/09/25 00:08:36;;;;;;;7.93;1.92;;;;;;;12.18;100.00;101547.34;4934939;29;20055;-88
2022/09/25 00:11:09;;;;;;;11.02;2.33;;;;;;;12.25;100.00;101581.25;4935925;29;20051;-88
2022/09/25 00:13:37;;;;;;;6.88;1.90;;;;;;;11.99;100.00;101553.19;4936696;29;20055;-89
2022/09/25 00:16:04;;;;;;;6.50;1.92;;;;;;;11.70;100.00;101525.16;4936163;29;20047;-89
2022/09/25 00:21:17;;;;;;;8.30;2.00;;;;;;;11.99;100.00;101568.03;4948541;29;20055;-88
2022/09/25 00:23:44;;;;;;;8.32;2.00;;;;;;;11.74;100.00;101524.16;4939146;28;20051;-89
2022/09/25 00:26:14;;;;;;;10.65;1.95;;;;;;;11.89;100.00;101544.69;4936130;29;20051;-88
2022/09/25 00:28:41;;;;;;;8.45;1.95;;;;;;;11.57;100.00;101530.75;4935932;29;20135;-88
2022/09/25 00:31:09;;;;;;;9.98;2.05;;;;;;;11.82;100.00;101565.91;4935255;29;20655;-89
2022/09/25 00:33:36;;;;;;;8.82;2.28;;;;;;;11.51;100.00;101524.81;4922349;29;20056;-88
2022/09/25 00:36:06;;;;;;;4.82;1.70;;;;;;;11.75;100.00;101549.47;4943860;29;20387;-88
2022/09/25 00:38:34;;;;;;;10.65;2.20;;;;;;;11.74;100.00;101564.38;4936801;28;20091;-88
2022/09/25 00:41:02;;;;;;;7.50;2.08;;;;;;;11.35;100.00;101519.16;4922519;29;20048;-88
2022/09/25 00:43:39;;;;;;;8.63;2.13;;;;;;;11.52;100.00;101526.53;4935810;29;20044;-88
2022/09/25 00:46:12;;;;;;;6.55;2.17;;;;;;;11.46;100.00;101524.13;4922360;29;20066;-88
2022/09/25 00:48:59;;;;;;;12.45;2.25;;;;;;;11.51;100.00;101527.44;4935546;29;20083;-88
2022/09/25 00:51:33;;;;;;;7.43;1.70;;;;;;;11.62;100.00;101550.75;4923700;29;20048;-87
2022/09/25 00:54:04;;;;;;;9.02;2.55;;;;;;;11.62;100.00;101521.91;4934802;29;20055;-87
2022/09/25 00:56:36;;;;;;;10.50;2.20;;;;;;;11.59;100.00;101530.72;4936782;29;20107;-89
2022/09/25 00:59:05;;;;;;;7.85;2.10;;;;;;;11.71;100.00;101535.59;4940052;29;20047;-87
2022/09/25 01:01:32;;;;;;;7.13;2.05;;;;;;;11.73;100.00;101522.44;4935930;29;20063;-87
2022/09/25 01:03:59;;;;;;;10.68;2.22;;;;;;;11.91;100.00;101540.28;4935446;29;20154;-87
2022/09/25 01:06:27;;;;;;;10.70;2.33;;;;;;;11.96;100.00;101534.91;4935184;29;20054;-87
2022/09/25 01:08:55;;;;;;;10.68;2.25;;;;;;;11.76;100.00;101504.00;4939335;29;20062;-88
2022/09/25 01:11:22;;;;;;;10.40;1.50;;;;;;;11.83;100.00;101495.03;4935530;29;20060;-88
2022/09/25 01:13:52;;;;;;;10.05;2.33;;;;;;;11.75;100.00;101484.75;4941410;29;20486;-88
2022/09/25 01:16:34;;;;;;;11.15;1.85;;;;;;;11.83;100.00;101494.13;4941984;29;20510;-88
2022/09/25 01:19:19;;;;;;;8.20;1.95;;;;;;;12.03;100.00;101517.19;4935573;29;20051;-89
2022/09/25 01:21:53;;;;;;;20.35;2.92;;;;;;;11.98;100.00;101514.72;4934830;29;20055;-88
2022/09/25 01:24:41;;;;;;;9.40;2.35;;;;;;;11.75;100.00;101516.22;4936384;29;20047;-88
2022/09/25 01:27:26;;;;;;;7.90;2.33;;;;;;;11.71;100.00;101506.75;4935110;29;20055;-89
2022/09/25 01:30:04;;;;;;;10.48;2.10;;;;;;;11.48;100.00;101454.97;4934843;29;20047;-89
2022/09/25 01:32:42;;;;;;;6.93;1.80;;;;;;;11.84;100.00;101499.34;4922432;29;20051;-89
2022/09/25 01:35:20;;;;;;;14.07;2.47;;;;;;;11.84;100.00;101490.63;4935224;29;20391;-88
2022/09/25 01:37:58;;;;;;;7.55;2.20;;;;;;;11.87;100.00;101495.78;4930008;29;20056;-87
2022/09/25 01:40:25;;;;;;;7.38;1.92;;;;;;;11.96;100.00;101488.50;4935112;29;20052;-89
2022/09/25 01:43:00;;;;;;;7.93;1.83;;;;;;;11.98;100.00;101475.34;4935726;29;20075;-88
2022/09/25 01:45:53;;;;;;;10.45;2.08;;;;;;;11.75;100.00;101463.75;4934890;29;20052;-89
2022/09/25 01:48:25;;;;;;;6.00;1.80;;;;;;;11.59;100.00;101408.28;4944383;29;20055;-89
2022/09/25 01:51:29;;;;;;;9.52;2.05;;;;;;;12.03;100.00;101462.09;4935962;29;20055;-88
2022/09/25 01:54:02;;;;;;;8.20;2.08;;;;;;;11.81;100.00;101438.22;4900200;29;20462;-88
2022/09/25 01:56:38;;;;;;;6.03;2.00;;;;;;;11.84;100.00;101435.53;4934368;29;20051;-88
2022/09/25 01:59:11;;;;;;;7.50;1.65;;;;;;;11.86;100.00;101441.56;4921380;29;20380;-88
2022/09/25 02:01:41;;;;;;;9.38;1.95;;;;;;;11.95;100.00;101443.94;4933834;29;20059;-88
2022/09/25 02:04:15;;;;;;;6.90;2.05;;;;;;;11.75;100.00;101408.66;4934879;29;20055;-86
2022/09/25 02:06:46;;;;;;;14.68;2.70;;;;;;;11.65;100.00;101425.63;4934269;29;20048;-87
2022/09/25 02:09:19;;;;;;;10.00;2.05;;;;;;;11.74;100.00;101427.94;4934060;29;20054;-88
2022/09/25 02:11:50;;;;;;;8.95;2.00;;;;;;;11.89;100.00;101459.84;4934679;29;20048;-88
2022/09/25 02:14:22;;;;;;;9.73;1.70;;;;;;;11.62;100.00;101390.75;4949896;28;20549;-88
2022/09/25 02:16:55;;;;;;;6.88;1.90;;;;;;;11.86;100.00;101425.84;4934251;29;20052;-88
2022/09/25 02:22:18;;;;;;;5.20;1.63;;;;;;;11.95;100.00;101457.94;4933683;29;20048;-88
2022/09/25 02:24:59;;;;;;;8.75;2.25;;;;;;;11.77;100.00;101421.72;4935616;29;20047;-88
2022/09/25 02:27:27;;;;;;;16.23;2.33;;;;;;;11.80;100.00;101426.88;4932251;29;20051;-88
2022/09/25 02:29:57;;;;;;;9.80;2.05;;;;;;;11.79;100.00;101414.66;4926565;29;20044;-88
2022/09/25 02:32:29;;;;;;;7.95;2.15;;;;;;;11.93;100.00;101427.38;4956301;28;20051;-88
2022/09/25 02:34:58;;;;;;;7.05;2.15;;;;;;;11.86;100.00;101439.81;4945222;29;20063;-88
2022/09/25 02:37:26;;;;;;;9.43;1.85;;;;;;;11.82;100.00;101440.81;4939207;29;20118;-88
2022/09/25 02:39:56;;;;;;;10.45;1.92;;;;;;;11.67;100.00;101412.44;4939296;29;20714;-87
2022/09/25 02:42:35;;;;;;;9.70;2.00;;;;;;;11.56;100.00;101407.53;4937410;29;20047;-88
2022/09/25 02:45:41;;;;;;;10.68;2.03;;;;;;;11.84;100.00;101438.16;4949383;29;20443;-88
2022/09/25 02:48:14;;;;;;;8.27;2.63;;;;;;;11.85;100.00;101437.25;4938121;29;20043;-86
2022/09/25 02:50:53;;;;;;;11.13;2.10;;;;;;;11.50;100.00;101387.59;4949621;29;20048;-87
2022/09/25 02:53:35;;;;;;;9.25;2.17;;;;;;;11.62;100.00;101398.63;4953320;29;20111;-87
2022/09/25 02:56:08;;;;;;;9.68;2.15;;;;;;;11.34;100.00;101355.75;4937686;29;20078;-88
2022/09/25 02:58:51;;;;;;;8.35;1.98;;;;;;;11.55;100.00;101385.69;4936951;29;20059;-88
2022/09/25 03:01:21;;;;;;;4.73;1.60;;;;;;;11.50;100.00;101364.00;4933419;29;20061;-88
2022/09/25 03:03:52;;;;;;;6.13;1.85;;;;;;;11.43;100.00;101349.34;4936959;29;20985;-87
2022/09/25 03:06:21;;;;;;;7.78;2.03;;;;;;;11.71;100.00;101361.59;4937317;29;20062;-87
2022/09/25 03:08:53;;;;;;;12.18;1.65;;;;;;;11.80;100.00;101360.44;4938748;29;20058;-88
2022/09/25 03:11:20;;;;;;;6.55;1.60;;;;;;;11.73;100.00;101336.19;4938209;28;20100;-89
2022/09/25 03:14:06;;;;;;;4.60;1.58;;;;;;;12.07;100.00;101398.06;4951446;29;20056;-87
2022/09/25 03:16:50;;;;;;;5.80;1.80;;;;;;;11.72;100.00;101327.47;4930820;29;20055;-88
2022/09/25 03:19:20;;;;;;;9.00;1.60;;;;;;;11.75;100.00;101339.59;4937305;29;20479;-87
2022/09/25 03:21:48;;;;;;;7.70;2.03;;;;;;;11.74;100.00;101346.63;4937898;29;20043;-87
2022/09/25 03:24:15;;;;;;;8.13;1.63;;;;;;;11.91;100.00;101359.19;4936974;29;20055;-88
2022/09/25 03:26:43;;;;;;;7.15;1.90;;;;;;;11.76;100.00;101331.69;4952796;28;20051;-87
2022/09/25 03:29:14;;;;;;;8.13;1.88;;;;;;;11.52;100.00;101303.63;4936928;29;20043;-88
2022/09/25 03:31:41;;;;;;;9.57;1.92;;;;;;;11.69;100.00;101327.56;4936863;29;20058;-87
2022/09/25 03:34:10;;;;;;;11.10;1.80;;;;;;;11.53;100.00;101298.34;4937369;29;20052;-88
2022/09/25 03:36:36;;;;;;;11.15;2.30;;;;;;;11.64;100.00;101333.84;4937154;29;20414;-88
2022/09/25 03:39:04;;;;;;;7.85;1.70;;;;;;;11.84;100.00;101355.03;4930286;29;20765;-89
2022/09/25 03:41:34;;;;;;;5.03;1.50;;;;;;;11.41;100.00;101285.63;4952702;29;20044;-89
2022/09/25 03:44:01;;;;;;;7.50;1.83;;;;;;;11.71;100.00;101320.47;4936950;29;20060;-88
2022/09/25 03:46:30;;;;;;;7.13;1.98;;;;;;;11.78;100.00;101342.97;4936510;29;20554;-86
2022/09/25 03:48:57;;;;;;;8.52;1.80;;;;;;;11.61;100.00;101305.94;4937024;29;20056;-90
2022/09/25 03:51:26;;;;;;;9.10;1.88;;;;;;;11.46;100.00;101288.13;4935488;29;20044;-88
2022/09/25 03:53:53;;;;;;;5.65;1.67;;;;;;;11.37;100.00;101279.63;4936007;29;20051;-87
2022/09/25 03:56:23;;;;;;;7.38;1.70;;;;;;;11.80;100.00;101340.31;4948678;28;20047;-88
2022/09/25 03:58:53;;;;;;;7.68;1.73;;;;;;;11.35;100.00;101276.19;4952388;29;20712;-87
2022/09/25 04:01:21;;;;;;;7.43;1.75;;;;;;;11.53;100.00;101281.75;4947605;29;20048;-89
2022/09/25 04:03:48;;;;;;;8.95;1.70;;;;;;;11.35;100.00;101262.22;4936098;29;20071;-88
2022/09/25 04:06:18;;;;;;;7.93;1.95;;;;;;;11.80;100.00;101290.47;4935827;29;20059;-86
2022/09/25 04:08:47;;;;;;;7.22;2.00;;;;;;;11.91;100.00;101327.72;4936930;29;20048;-87
2022/09/25 04:11:15;;;;;;;7.43;1.98;;;;;;;11.98;100.00;101322.28;4936740;29;20039;-87
2022/09/25 04:13:45;;;;;;;7.40;1.80;;;;;;;11.92;100.00;101286.59;4924482;29;20055;-86
2022/09/25 04:16:14;;;;;;;8.85;2.38;;;;;;;12.17;100.00;101307.59;4937773;29;20470;-85
2022/09/25 04:18:42;;;;;;;7.65;1.95;;;;;;;12.05;100.00;101315.91;4936253;29;20047;-88
2022/09/25 04:21:12;;;;;;;8.82;1.80;;;;;;;11.87;100.00;101278.00;4937142;29;20414;-86
2022/09/25 04:23:39;;;;;;;6.10;2.00;;;;;;;11.82;100.00;101300.91;4934909;29;20063;-88
2022/09/25 04:26:07;;;;;;;13.88;2.00;;;;;;;11.91;100.00;101292.75;4936241;29;20055;-88
2022/09/25 04:28:35;;;;;;;5.95;1.70;;;;;;;11.56;100.00;101235.31;4949647;29;20071;-88
2022/09/25 04:31:02;;;;;;;11.27;2.75;;;;;;;11.67;100.00;101245.44;4936058;29;20498;-89
2022/09/25 04:33:45;;;;;;;9.55;2.00;;;;;;;11.82;100.00;101261.56;4951271;29;20078;-88
2022/09/25 04:36:13;;;;;;;12.45;2.58;;;;;;;11.81;100.00;101281.69;4935707;29;20058;-88
2022/09/25 04:38:40;;;;;;;7.15;2.03;;;;;;;11.72;100.00;101253.13;4936010;29;20051;-89
2022/09/25 04:41:07;;;;;;;10.55;2.35;;;;;;;11.72;100.00;101234.75;4935892;29;20415;-89
2022/09/25 04:43:34;;;;;;;8.10;2.03;;;;;;;11.81;100.00;101265.94;4949256;29;20433;-88
2022/09/25 04:46:05;;;;;;;8.57;1.90;;;;;;;11.66;100.00;101225.34;4917944;29;20075;-88
2022/09/25 04:48:33;;;;;;;7.55;1.95;;;;;;;11.50;100.00;101225.00;4928635;29;20470;-88
2022/09/25 04:50:59;;;;;;;11.35;2.05;;;;;;;11.35;100.00;101215.91;4935680;29;20098;-89
2022/09/25 04:53:29;;;;;;;13.88;2.33;;;;;;;11.48;100.00;101232.06;4945191;29;20058;-89
2022/09/25 04:56:01;;;;;;;9.20;2.63;;;;;;;11.24;100.00;101199.66;4938512;28;20089;-89
2022/09/25 04:58:27;;;;;;;9.98;2.58;;;;;;;11.54;100.00;101238.88;4934840;29;20059;-89
2022/09/25 05:00:54;;;;;;;7.47;1.98;;;;;;;11.44;100.00;101224.34;4936098;29;20058;-88
2022/09/25 05:03:21;;;;;;;7.82;1.92;;;;;;;11.43;100.00;101222.66;4934624;29;20048;-88
2022/09/25 05:05:48;;;;;;;5.25;1.92;;;;;;;11.40;100.00;101197.38;4935352;29;20051;-88
2022/09/25 05:08:15;;;;;;;8.32;2.58;;;;;;;11.57;100.00;101238.78;4935943;29;20048;-88
2022/09/25 05:10:43;;;;;;;10.98;2.10;;;;;;;11.51;100.00;101197.88;4935176;29;20044;-89
2022/09/25 05:13:10;;;;;;;10.25;1.90;;;;;;;11.54;100.00;101199.53;4936163;29;20067;-87
2022/09/25 05:15:36;;;;;;;7.68;2.17;;;;;;;11.59;100.00;101208.97;4935752;29;20056;-88
2022/09/25 05:18:14;;;;;;;9.27;1.48;;;;;;;11.80;100.00;101229.28;4935224;29;20067;-88
2022/09/25 05:20:41;;;;;;;9.07;1.95;;;;;;;11.80;100.00;101238.00;4934652;29;20533;-88
2022/09/25 05:23:08;;;;;;;6.85;1.55;;;;;;;11.63;100.00;101211.47;4935242;29;20055;-86
2022/09/25 05:25:35;;;;;;;6.70;1.90;;;;;;;11.60;100.00;101191.47;4934567;29;20055;-88
2022/09/25 05:28:02;;;;;;;6.13;1.88;;;;;;;11.50;100.00;101187.44;4935382;29;20617;-88
2022/09/25 05:30:31;;;;;;;7.70;1.85;;;;;;;11.57;100.00;101213.41;4943093;29;20074;-87
2022/09/25 05:32:58;;;;;;;5.40;1.52;;;;;;;11.70;100.00;101223.47;4939470;28;20055;-87
2022/09/25 05:35:28;;;;;;;6.85;1.67;;;;;;;11.85;100.00;101225.56;4934310;29;20107;-89
2022/09/25 05:37:55;;;;;;;3.88;1.27;;;;;;;11.61;100.00;101179.22;4934898;29;20127;-89
2022/09/25 05:40:22;;;;;;;7.22;1.65;;;;;;;11.57;100.00;101174.06;4934812;29;20055;-89
2022/09/25 05:42:50;;;;;;;6.55;1.63;;;;;;;11.93;100.00;101222.69;4934551;29;20056;-88
2022/09/25 05:45:19;;;;;;;7.05;1.70;;;;;;;11.71;100.00;101206.84;4950579;28;20139;-89
2022/09/25 05:47:46;;;;;;;5.90;1.60;;;;;;;11.69;100.00;101200.78;4934566;29;20062;-88
2022/09/25 05:50:15;;;;;;;10.48;2.05;;;;;;;11.90;100.00;101230.66;4934669;29;20055;-89
2022/09/25 05:52:42;;;;;;;7.95;1.70;;;;;;;11.65;100.00;101186.94;4935060;29;20466;-88
2022/09/25 05:55:09;;;;;;;4.68;1.48;;;;;;;12.05;100.00;101234.53;4935394;29;20051;-89
2022/09/25 05:57:37;;;;;;;9.93;2.15;;;;;;;12.08;100.00;101227.41;4932645;29;20051;-89
2022/09/25 06:00:10;;;;;;;8.75;2.15;;;;;;;11.90;100.00;101228.94;4923664;29;20059;-88
2022/09/25 06:02:37;;;;;;;8.93;2.00;;;;;;;11.71;100.00;101170.13;4950232;29;20051;-87
2022/09/25 06:05:04;;;;;;;10.45;2.20;;;;;;;12.07;100.00;101215.19;4930080;29;20075;-88
2022/09/25 06:07:30;;;;;;;8.05;2.00;;;;;;;11.99;100.00;101214.63;4947328;29;20055;-87
2022/09/25 06:09:57;;;;;;;4.82;1.67;;;;;;;11.75;100.00;101169.94;4937002;29;20070;-88
2022/09/25 06:12:24;;;;;;;6.80;1.67;;;;;;;12.07;100.00;101204.69;4934811;29;20055;-89
2022/09/25 06:14:51;;;;;;;7.18;1.83;;;;;;;11.89;100.00;101176.47;4934601;29;20138;-89
2022/09/25 06:17:19;;;;;;;9.13;2.15;;;;;;;11.96;100.00;101178.84;4935546;29;20056;-87
2022/09/25 06:19:46;;;;;;;6.38;1.70;;;;;;;11.68;100.00;101138.75;4938045;28;20063;-87
2022/09/25 06:22:13;;;;;;;8.25;2.20;;;;;;;11.90;100.00;101152.84;4938559;29;20055;-87
2022/09/25 06:24:40;;;;;;;7.15;1.77;;;;;;;11.89;100.00;101166.81;4935419;29;20068;-88
2022/09/25 06:27:07;;;;;;;6.15;1.77;;;;;;;11.71;100.00;101128.16;4943280;29;20531;-88
2022/09/25 06:29:34;;;;;;;10.30;2.30;;;;;;;12.19;100.00;101195.50;4933917;29;20055;-89
2022/09/25 06:32:02;;;;;;;6.00;1.80;;;;;;;12.18;100.00;101198.19;4933189;29;20098;-89
2022/09/25 06:34:31;;;;;;;6.93;1.52;;;;;;;11.90;100.00;101141.47;4945597;29;20458;-87
2022/09/25 06:37:00;;;;;;;6.15;1.85;;;;;;;11.87;100.00;101144.19;4944136;29;20119;-87
2022/09/25 06:39:26;;;;;;;9.27;2.10;;;;;;;11.99;100.00;101130.66;4931059;29;20052;-88
2022/09/25 06:41:53;;;;;;;6.78;1.70;;;;;;;11.99;100.00;101120.16;4935125;29;20059;-87
2022/09/25 06:44:21;;;;;;;5.85;1.40;;;;;;;12.14;100.00;101129.19;4933525;29;20639;-88
2022/09/25 06:46:53;;;;;;;7.78;2.00;;;;;;;12.30;100.00;101143.44;4927310;29;20398;-88
2022/09/25 06:49:20;;;;;;;7.45;1.73;;;;;;;12.26;100.00;101126.13;4935037;29;20075;-88
2022/09/25 06:51:49;;;;;;;6.93;1.40;;;;;;;12.21;100.00;101103.59;4938546;29;20465;-88
2022/09/25 06:54:16;;;;;;;6.78;1.98;;;;;;;12.29;100.00;101136.50;4930161;29;20056;-88
2022/09/25 06:56:48;;;;;;;5.72;1.67;;;;;;;12.19;100.00;101103.63;4925208;29;20048;-87
2022/09/25 06:59:15;;;;;;;5.30;1.67;;;;;;;12.24;100.00;101103.47;4923004;29;20056;-88
2022/09/25 07:01:42;;;;;;;7.05;1.52;;;;;;;12.12;100.00;101096.91;4930800;29;20052;-88
2022/09/25 07:04:09;;;;;;;7.57;1.52;;;;;;;12.37;100.00;101115.19;4929257;29;20084;-88
2022/09/25 07:06:36;;;;;;;6.75;1.83;;;;;;;12.21;100.00;101075.56;4935504;28;20091;-88
2022/09/25 07:09:03;;;;;;;6.43;1.60;;;;;;;12.03;100.00;101050.03;4938440;29;20492;-88
2022/09/25 07:11:30;;;;;;;6.50;1.60;;;;;;;12.18;100.00;101080.06;4933813;29;20111;-89
2022/09/25 07:13:57;;;;;;;6.57;1.45;;;;;;;12.20;100.00;101070.34;4933104;29;20055;-88
2022/09/25 07:16:26;;;;;;;6.10;1.48;;;;;;;12.19;100.00;101059.00;4932213;29;20103;-88
2022/09/25 07:18:56;;;;;;;5.47;1.60;;;;;;;12.27;100.00;101056.06;4932107;29;20098;-87
2022/09/25 07:21:24;;;;;;;8.23;1.83;;;;;;;12.46;100.00;101085.09;4937474;29;20837;-88
2022/09/25 07:23:51;;;;;;;6.95;1.52;;;;;;;12.19;100.00;101032.75;4939080;29;20051;-88
2022/09/25 07:26:21;;;;;;;9.45;2.13;;;;;;;12.49;100.00;101079.72;4944600;29;20546;-88
2022/09/25 07:28:56;;;;;;;6.85;1.77;;;;;;;12.07;100.00;100999.13;4943130;29;20410;-88
2022/09/25 07:31:28;;;;;;;5.95;1.30;;;;;;;12.50;100.00;101061.28;4937939;29;20098;-87
2022/09/25 07:33:58;;;;;;;9.43;1.65;;;;;;;12.26;100.00;101025.50;4951952;29;20051;-87
2022/09/25 07:36:25;;;;;;;7.53;1.80;;;;;;;12.30;100.00;101035.81;4937065;29;20055;-87
2022/09/25 07:38:52;;;;;;;8.40;1.70;;;;;;;12.51;100.00;101044.59;4936833;29;20051;-87
2022/09/25 07:41:21;;;;;;;7.95;2.45;;;;;;;12.40;100.00;101015.28;4951915;28;20048;-89
2022/09/25 07:43:56;;;;;;;8.43;1.90;;;;;;;12.54;100.00;101027.88;4936497;29;20055;-88
2022/09/25 07:46:43;;;;;;;5.25;1.63;;;;;;;12.41;100.00;101022.28;4943307;28;20052;-87
2022/09/25 07:49:10;;;;;;;8.00;1.75;;;;;;;12.28;100.00;100982.50;4948674;29;20423;-87
2022/09/25 07:51:37;;;;;;;6.82;1.60;;;;;;;12.25;100.00;100956.41;4937192;29;20192;-87
2022/09/25 07:54:07;;;;;;;5.63;1.40;;;;;;;12.31;100.00;100950.03;4936931;29;20051;-87
2022/09/25 07:56:34;;;;;;;7.75;1.83;;;;;;;12.45;100.00;100962.59;4938104;28;20875;-87
2022/09/25 07:59:00;;;;;;;7.07;1.60;;;;;;;12.71;100.00;101012.25;4948127;29;20051;-87
2022/09/25 08:01:27;;;;;;;5.40;1.52;;;;;;;12.54;100.00;100952.53;4940096;29;20051;-86
2022/09/25 08:03:54;;;;;;;7.65;1.98;;;;;;;12.84;100.00;100980.22;4937377;28;20487;-88
2022/09/25 08:06:21;;;;;;;4.25;1.27;;;;;;;12.67;100.00;100955.50;4936078;29;20638;-87
2022/09/25 08:08:47;;;;;;;6.28;1.40;;;;;;;12.85;100.00;100981.91;4936426;29;20056;-87
2022/09/25 08:11:17;;;;;;;6.45;1.90;;;;;;;13.02;100.00;100991.69;4935130;29;20136;-87
2022/09/25 08:13:44;;;;;;;6.70;1.58;;;;;;;12.61;100.00;100931.28;4935015;29;21510;-88
2022/09/25 08:16:16;;;;;;;5.45;1.70;;;;;;;12.96;100.00;100960.41;4940594;29;20187;-88
2022/09/25 08:18:45;;;;;;;7.10;1.73;;;;;;;13.11;100.00;100976.34;4933129;29;20601;-88
2022/09/25 08:21:14;;;;;;;5.05;1.40;;;;;;;12.73;100.00;100907.94;4934756;29;20050;-88
2022/09/25 08:23:43;;;;;;;7.90;1.70;;;;;;;13.21;100.00;100952.28;4935294;29;20106;-87
2022/09/25 08:26:14;;;;;;;6.20;1.35;;;;;;;13.27;100.00;100966.00;4937085;29;20048;-87
2022/09/25 08:28:41;;;;;;;4.28;1.30;;;;;;;13.06;100.00;100920.50;4936132;29;20063;-88
2022/09/25 08:31:08;;;;;;;3.67;1.30;;;;;;;13.38;100.00;100978.69;4929195;29;20051;-86
2022/09/25 08:33:36;;;;;;;4.68;1.42;;;;;;;13.17;100.00;100922.63;4946045;29;20055;-86
2022/09/25 08:36:04;;;;;;;4.50;1.30;;;;;;;13.09;100.00;100878.31;4935379;29;20458;-87
2022/09/25 08:38:32;;;;;;;4.45;1.77;;;;;;;13.48;100.00;100944.94;4934108;29;20142;-88
2022/09/25 08:41:08;;;;;;;4.05;1.45;;;;;;;13.33;100.00;100925.47;4935138;29;20055;-87
2022/09/25 08:43:41;;;;;;;5.82;1.30;;;;;;;13.27;100.00;100921.31;4928309;29;20470;-88
2022/09/25 08:49:10;;;;;;;3.83;1.30;;;;;;;13.63;100.00;100938.97;4936279;29;20051;-87
2022/09/25 08:51:36;;;;;;;7.65;1.70;;;;;;;13.73;100.00;100925.38;4934849;29;20478;-86
2022/09/25 08:54:04;;;;;;;4.55;1.33;;;;;;;13.45;100.00;100876.69;4934533;29;20047;-88
2022/09/25 08:56:33;;;;;;;5.53;1.55;;;;;;;13.69;100.00;100922.03;4936113;29;20043;-89
2022/09/25 08:59:09;;;;;;;5.40;1.70;;;;;;;13.50;100.00;100876.50;4942266;29;20051;-89
2022/09/25 09:01:42;;;;;;;4.20;1.33;;;;;;;13.89;100.00;100899.19;4932554;29;20082;-89
2022/09/25 09:04:18;;;;;;;4.28;1.23;;;;;;;14.01;100.00;100890.69;4938882;29;20394;-88
2022/09/25 09:06:50;;;;;;;5.72;1.38;;;;;;;14.24;100.00;100884.25;4941883;29;20059;-87
2022/09/25 09:09:51;;;;;;;8.63;1.52;;;;;;;14.59;100.00;100850.88;4933310;29;20079;-88
2022/09/25 09:12:30;;;;;;;5.82;1.40;;;;;;;15.11;100.00;100864.81;4934052;29;20047;-86
2022/09/25 09:15:15;;;;;;;3.90;1.25;;;;;;;15.58;100.00;100871.88;4929346;29;20051;-87
2022/09/25 09:17:42;;;;;;;3.50;1.15;;;;;;;15.76;100.00;100856.84;4927451;29;20051;-88
2022/09/25 09:20:18;;;;;;;5.60;1.42;;;;;;;15.25;100.00;100812.16;4933422;28;20059;-89
2022/09/25 09:22:52;;;;;;;5.20;1.50;;;;;;;15.49;100.00;100807.31;4939825;29;20055;-89
2022/09/25 09:25:34;;;;;;;6.50;1.77;;;;;;;15.92;100.00;100854.16;4940627;29;20055;-88
2022/09/25 09:28:21;;;;;;;4.75;1.40;;;;;;;15.73;100.00;100859.59;4921014;29;20059;-88
2022/09/25 09:30:57;;;;;;;4.00;1.30;;;;;;;15.80;100.00;100839.03;4935540;29;20052;-88
2022/09/25 09:33:34;;;;;;;3.92;1.30;;;;;;;15.44;100.00;100777.69;4938035;29;20138;-87
2022/09/25 09:36:12;;;;;;;4.40;1.45;;;;;;;15.67;100.00;100815.94;4933651;29;20051;-87
2022/09/25 09:39:01;;;;;;;8.77;1.40;;;;;;;15.74;100.00;100790.03;4933815;29;20450;-87
2022/09/25 09:41:42;;;;;;;5.35;1.38;;;;;;;15.84;100.00;100783.31;4930042;29;20051;-87
2022/09/25 09:44:12;;;;;;;5.25;1.60;;;;;;;16.17;100.00;100819.22;4922950;29;20545;-87
2022/09/25 09:47:02;;;;;;;4.25;1.23;;;;;;;16.27;100.00;100801.88;4933548;29;20530;-88
2022/09/25 09:49:46;;;;;;;5.85;1.42;;;;;;;16.62;100.00;100785.63;4936541;29;20051;-87
2022/09/25 09:52:24;;;;;;;3.83;1.33;;;;;;;17.01;100.00;100776.16;4934376;29;20044;-85
2022/09/25 09:55:06;;;;;;;3.78;1.25;;;;;;;17.03;100.00;100761.06;4923858;29;20052;-86
2022/09/25 09:57:46;;;;;;;5.38;1.20;;;;;;;16.96;100.00;100730.66;4951441;29;20048;-86
2022/09/25 10:00:15;;;;;;;3.25;1.23;;;;;;;17.30;100.00;100780.53;4934715;29;20098;-87
2022/09/25 10:02:44;;;;;;;3.33;1.10;;;;;;;17.26;100.00;100767.53;4951372;29;20051;-87
2022/09/25 10:05:21;;;;;;;4.28;1.40;;;;;;;17.30;100.00;100749.66;4931139;29;20084;-87
2022/09/25 10:07:50;;;;;;;3.55;1.17;;;;;;;17.00;100.00;100695.13;4933723;29;20059;-87
2022/09/25 10:10:18;;;;;;;3.35;1.00;;;;;;;16.94;100.00;100697.34;4933032;29;20421;-86
2022/09/25 10:12:51;;;;;;;4.93;1.30;;;;;;;16.86;100.00;100740.97;4926857;29;20430;-87
2022/09/25 10:15:35;;;;;;;4.25;1.13;;;;;;;16.84;100.00;100729.66;4936899;28;20066;-86
2022/09/25 10:18:02;;;;;;;3.10;0.95;;;;;;;16.88;100.00;100699.41;4934130;29;20047;-89
2022/09/25 10:21:05;;;;;;;4.88;1.15;;;;;;;16.86;100.00;100660.81;4934498;29;20058;-92
2022/09/25 10:23:50;;;;;;;5.65;1.20;;;;;;;16.85;100.00;100651.19;4936880;29;20055;-89
2022/09/25 10:26:32;;;;;;;2.75;1.00;;;;;;;17.03;100.00;100679.09;4935616;29;20106;-92
2022/09/25 10:29:04;;;;;;;2.92;1.10;;;;;;;16.85;100.00;100637.94;4939045;29;20055;-93
2022/09/25 10:31:39;;;;;;;3.35;1.33;;;;;;;17.15;100.00;100632.44;4938592;29;20474;-93
2022/09/25 10:34:12;;;;;;;4.93;1.20;;;;;;;17.90;100.00;100652.97;4959701;29;20063;-92
2022/09/25 10:36:45;;;;;;;3.55;1.13;;;;;;;18.02;100.00;100644.16;4936947;29;20056;-92
2022/09/25 10:39:31;;;;;;;4.70;1.30;;;;;;;18.26;100.00;100651.31;4930275;29;20058;-92
2022/09/25 10:42:36;;;;;;;3.03;1.02;;;;;;;18.39;100.00;100644.19;4938471;29;20099;-93
2022/09/25 10:45:30;;;;;;;2.25;0.98;;;;;;;18.39;100.00;100619.47;4937877;29;20056;-93
2022/09/25 10:50:43;;;;;;;2.95;1.10;;;;;;;18.40;100.00;100622.03;4934477;29;20064;-93
2022/09/25 10:53:32;;;;;;;3.05;1.13;;;;;;;18.21;100.00;100564.19;4938038;29;20054;-93
2022/09/25 10:56:11;;;;;;;3.00;1.05;;;;;;;18.23;100.00;100548.19;4941027;29;20438;-93
2022/09/25 10:58:53;;;;;;;3.53;1.08;;;;;;;18.37;100.00;100552.50;4940825;29;20102;-93
2022/09/25 11:01:29;;;;;;;2.50;1.00;;;;;;;18.54;100.00;100556.56;4945992;29;20652;-93
2022/09/25 11:03:57;;;;;;;5.47;1.40;;;;;;;18.73;100.00;100570.16;4949617;28;20139;-93
2022/09/25 11:06:32;;;;;;;3.78;1.00;;;;;;;18.35;100.00;100498.75;4927514;29;20067;-93
2022/09/25 11:09:12;;;;;;;4.30;1.08;;;;;;;18.97;100.00;100571.94;4941308;29;20051;-93
2022/09/25 11:11:40;;;;;;;3.13;0.93;;;;;;;18.74;100.00;100512.63;4940696;29;20060;-93
2022/09/25 11:14:21;;;;;;;4.30;1.08;;;;;;;18.26;100.00;100508.22;4942332;29;20059;-91
2022/09/25 11:16:54;;;;;;;3.13;0.90;;;;;;;18.57;100.00;100543.06;4954364;29;20060;-92
2022/09/25 11:19:24;;;;;;;4.47;1.10;;;;;;;18.63;100.00;100539.09;4939785;29;20047;-93
2022/09/25 11:22:17;;;;;;;5.65;1.40;;;;;;;18.49;100.00;100527.72;4943714;29;20051;-92
2022/09/25 11:24:55;;;;;;;3.95;1.00;;;;;;;18.63;100.00;100545.25;4933274;28;20059;-92
2022/09/25 11:27:47;;;;;;;;;;;;;;;18.84;100.00;100544.63;4939803;29;20055;-93
2022/09/25 11:30:17;;;;;;;3.08;0.95;;;;;;;18.62;100.00;100550.69;4936472;29;20321;-93
2022/09/25 11:33:07;;;;;;;3.15;1.00;;;;;;;18.60;100.00;100534.88;4928370;29;20051;-94
2022/09/25 11:35:44;;;;;;;4.05;1.00;;;;;;;18.38;100.00;100512.63;4938405;29;20052;-92
2022/09/25 11:38:14;;;;;;;2.30;0.93;;;;;;;18.76;100.00;100535.41;4939658;29;20047;-92
2022/09/25 11:41:17;;;;;;;3.05;0.98;;;;;;;19.05;100.00;100521.81;4940133;29;20059;-88
2022/09/25 11:43:56;;;;;;;5.03;1.07;;;;;;;19.01;100.00;100519.50;4932237;29;20580;-90
2022/09/25 11:47:03;;;;;;;5.70;1.20;;;;;;;19.01;100.00;100479.69;4933364;29;20314;-89
2022/09/25 11:49:36;;;;;;;5.15;1.30;;;;;;;19.12;100.00;100477.91;4863233;29;20049;-90
2022/09/25 11:52:22;;;;;;;8.93;1.58;;;;;;;19.03;100.00;100452.06;4928511;29;20451;-87